createdAt,value
2023-04-02T00:01:01.368Z,23.94
2023-04-02T00:03:44.439Z,23.61
2023-04-02T00:06:30.514Z,24.94
2023-04-02T00:09:20.430Z,25.31
2023-04-02T00:11:50.159Z,25.38
2023-04-02T00:14:33.637Z,23.94
2023-04-02T00:17:04.199Z,25.39
2023-04-02T00:19:37.483Z,25.05
2023-04-02T00:22:09.678Z,26.87
2023-04-02T00:24:39.093Z,26.36
2023-04-02T00:27:11.917Z,26.72
2023-04-02T00:29:50.641Z,26.29
2023-04-02T00:32:26.445Z,26.98
2023-04-02T00:34:55.578Z,26.76
2023-04-02T00:37:28.317Z,27.23
2023-04-02T00:40:02.245Z,26.77
2023-04-02T00:42:34.794Z,27.03
2023-04-02T00:45:03.260Z,26.40
2023-04-02T00:47:38.339Z,27.30
2023-04-02T00:50:19.384Z,26.43
2023-04-02T00:52:50.998Z,25.77
2023-04-02T00:55:31.868Z,26.62
2023-04-02T00:58:01.342Z,25.49
2023-04-02T01:00:29.310Z,25.90
2023-04-02T01:03:13.191Z,26.68
2023-04-02T01:05:42.578Z,26.83
2023-04-02T01:08:17.641Z,26.72
2023-04-02T01:10:54.023Z,26.05
2023-04-02T01:13:41.974Z,25.41
2023-04-02T01:16:17.427Z,26.01
2023-04-02T01:18:51.023Z,26.76
2023-04-02T01:21:54.268Z,26.50
2023-04-02T01:24:26.537Z,26.01
2023-04-02T01:27:04.736Z,26.59
2023-04-02T01:29:39.567Z,25.94
2023-04-02T01:32:14.021Z,25.68
2023-04-02T01:34:44.744Z,26.31
2023-04-02T01:37:23.397Z,26.37
2023-04-02T01:40:06.450Z,26.40
2023-04-02T01:42:36.660Z,26.53
2023-04-02T01:45:12.305Z,25.41
2023-04-02T01:47:40.669Z,25.31
2023-04-02T01:50:32.025Z,24.44
2023-04-02T01:53:07.245Z,25.99
2023-04-02T01:55:39.042Z,26.46
2023-04-02T01:58:08.903Z,26.70
2023-04-02T02:00:43.734Z,25.18
2023-04-02T02:03:13.017Z,26.79
2023-04-02T02:05:41.442Z,25.48
2023-04-02T02:08:40.830Z,26.24
2023-04-02T02:11:16.293Z,27.07
2023-04-02T02:14:12.039Z,27.09
2023-04-02T02:16:41.972Z,26.60
2023-04-02T02:19:38.559Z,27.30
2023-04-02T02:22:13.336Z,24.85
2023-04-02T02:24:42.181Z,25.03
2023-04-02T02:27:25.598Z,23.94
2023-04-02T02:30:10.907Z,25.67
2023-04-02T02:32:48.433Z,25.06
2023-04-02T02:35:27.221Z,24.43
2023-04-02T02:38:20.169Z,25.82
2023-04-02T02:40:52.802Z,24.40
2023-04-02T02:43:21.083Z,25.79
2023-04-02T02:45:49.911Z,25.22
2023-04-02T02:48:21.696Z,26.25
2023-04-02T02:50:51.167Z,25.44
2023-04-02T02:53:24.057Z,24.61
2023-04-02T02:56:00.404Z,25.69
2023-04-02T02:58:34.573Z,26.48
2023-04-02T03:01:16.677Z,26.72
2023-04-02T03:03:47.442Z,25.86
2023-04-02T03:06:17.247Z,25.35
2023-04-02T03:08:52.263Z,25.67
2023-04-02T03:11:41.001Z,26.25
2023-04-02T03:14:39.089Z,24.16
2023-04-02T03:17:14.924Z,25.23
2023-04-02T03:20:25.941Z,24.91
2023-04-02T03:23:05.899Z,24.08
2023-04-02T03:25:53.224Z,24.36
2023-04-02T03:28:25.805Z,25.45
2023-04-02T03:31:24.240Z,25.76
2023-04-02T03:34:25.636Z,25.48
2023-04-02T03:37:00.154Z,26.54
2023-04-02T03:39:34.526Z,25.05
2023-04-02T03:42:09.287Z,24.80
2023-04-02T03:44:47.047Z,24.15
2023-04-02T03:47:23.717Z,24.22
2023-04-02T03:50:06.304Z,23.38
2023-04-02T03:52:37.526Z,24.66
2023-04-02T03:55:17.970Z,24.16
2023-04-02T03:58:00.800Z,25.23
2023-04-02T04:00:39.530Z,25.59
2023-04-02T04:03:18.531Z,24.95
2023-04-02T04:05:58.643Z,25.52
2023-04-02T04:08:34.622Z,26.26
2023-04-02T04:11:10.610Z,25.86
2023-04-02T04:13:51.258Z,25.84
2023-04-02T04:16:24.574Z,25.84
2023-04-02T04:19:03.724Z,25.61
2023-04-02T04:21:37.830Z,23.92
2023-04-02T04:24:22.605Z,26.10
2023-04-02T04:27:04.553Z,26.26
2023-04-02T04:30:03.988Z,25.88
2023-04-02T04:32:39.062Z,25.85
2023-04-02T04:35:37.717Z,26.44
2023-04-02T04:38:16.918Z,25.84
2023-04-02T04:40:54.460Z,25.55
2023-04-02T04:43:57.038Z,27.29
2023-04-02T04:46:40.276Z,27.38
2023-04-02T04:49:19.748Z,27.59
2023-04-02T04:51:55.885Z,26.73
2023-04-02T04:54:28.959Z,27.03
2023-04-02T04:57:02.725Z,27.42
2023-04-02T04:59:42.762Z,24.48
2023-04-02T05:02:17.462Z,24.56
2023-04-02T05:04:51.000Z,27.38
2023-04-02T05:07:28.264Z,26.65
2023-04-02T05:10:09.483Z,28.22
2023-04-02T05:13:01.898Z,26.56
2023-04-02T05:15:40.024Z,25.05
2023-04-02T05:18:18.317Z,26.74
2023-04-02T05:21:16.579Z,26.22
2023-04-02T05:23:51.173Z,27.47
2023-04-02T05:26:25.850Z,28.47
2023-04-02T05:29:01.346Z,27.45
2023-04-02T05:31:56.664Z,26.91
2023-04-02T05:34:32.438Z,26.32
2023-04-02T05:37:00.502Z,26.30
2023-04-02T05:39:29.442Z,26.77
2023-04-02T05:42:04.954Z,26.88
2023-04-02T05:45:21.559Z,26.25
2023-04-02T05:47:53.956Z,25.32
2023-04-02T05:50:43.110Z,25.20
2023-04-02T05:53:24.970Z,25.58
2023-04-02T05:56:20.799Z,26.61
2023-04-02T05:59:00.919Z,27.02
2023-04-02T06:01:51.337Z,25.54
2023-04-02T06:04:31.062Z,24.39
2023-04-02T06:07:14.677Z,25.83
2023-04-02T06:10:05.014Z,26.35
2023-04-02T06:13:00.266Z,26.87
2023-04-02T06:15:31.640Z,27.18
2023-04-02T06:18:19.187Z,27.02
2023-04-02T06:20:48.706Z,28.38
2023-04-02T06:23:45.338Z,28.13
2023-04-02T06:26:31.400Z,28.77
2023-04-02T06:29:39.631Z,29.23
2023-04-02T06:32:12.346Z,29.47
2023-04-02T06:34:43.040Z,28.85
2023-04-02T06:37:21.352Z,28.41
2023-04-02T06:39:52.967Z,28.85
2023-04-02T06:42:38.602Z,30.04
2023-04-02T06:45:35.231Z,28.93
2023-04-02T06:48:19.549Z,27.62
2023-04-02T06:51:10.764Z,28.14
2023-04-02T06:53:44.674Z,29.47
2023-04-02T06:56:22.289Z,27.88
2023-04-02T06:58:50.339Z,27.18
2023-04-02T07:01:23.280Z,27.79
2023-04-02T07:03:52.181Z,27.50
2023-04-02T07:06:28.138Z,27.16
2023-04-02T07:08:59.543Z,28.73
2023-04-02T07:11:27.840Z,28.34
2023-04-02T07:13:59.068Z,29.72
2023-04-02T07:16:29.437Z,27.70
2023-04-02T07:18:58.906Z,29.83
2023-04-02T07:21:28.658Z,26.48
2023-04-02T07:23:57.488Z,26.71
2023-04-02T07:26:27.958Z,28.71
2023-04-02T07:28:56.530Z,30.35
2023-04-02T07:31:27.191Z,27.70
2023-04-02T07:33:59.691Z,30.15
2023-04-02T07:36:29.216Z,28.93
2023-04-02T07:38:57.294Z,30.71
2023-04-02T07:41:24.980Z,31.14
2023-04-02T07:43:52.756Z,30.31
2023-04-02T07:46:20.457Z,28.36
2023-04-02T07:48:48.390Z,29.27
2023-04-02T07:51:24.746Z,29.37
2023-04-02T07:53:56.390Z,29.11
2023-04-02T07:56:25.403Z,29.85
2023-04-02T07:58:53.143Z,30.31
2023-04-02T08:01:26.890Z,28.79
2023-04-02T08:03:56.651Z,30.87
2023-04-02T08:06:25.715Z,28.21
2023-04-02T08:08:53.453Z,29.72
2023-04-02T08:11:21.378Z,29.42
2023-04-02T08:13:49.734Z,30.76
2023-04-02T08:16:18.629Z,30.15
2023-04-02T08:18:47.675Z,29.87
2023-04-02T08:21:16.819Z,30.42
2023-04-02T08:23:44.875Z,27.58
2023-04-02T08:26:18.641Z,30.64
2023-04-02T08:28:47.017Z,31.78
2023-04-02T08:31:15.025Z,30.09
2023-04-02T08:33:43.128Z,28.89
2023-04-02T08:36:18.504Z,28.69
2023-04-02T08:38:46.206Z,29.97
2023-04-02T08:41:27.818Z,30.16
2023-04-02T08:44:27.344Z,31.88
2023-04-02T08:47:04.099Z,30.66
2023-04-02T08:49:37.826Z,29.22
2023-04-02T08:52:05.892Z,31.00
2023-04-02T08:54:38.090Z,31.99
2023-04-02T08:57:27.401Z,31.37
2023-04-02T09:00:06.166Z,32.14
2023-04-02T09:02:43.595Z,31.31
2023-04-02T09:05:19.379Z,31.68
2023-04-02T09:07:48.909Z,31.34
2023-04-02T09:10:17.918Z,30.48
2023-04-02T09:12:54.381Z,29.02
2023-04-02T09:15:35.545Z,30.44
2023-04-02T09:18:19.115Z,28.94
2023-04-02T09:20:50.472Z,29.20
2023-04-02T09:23:22.264Z,27.96
2023-04-02T09:26:03.604Z,28.41
2023-04-02T09:28:32.440Z,29.59
2023-04-02T09:31:09.238Z,30.11
2023-04-02T09:33:42.741Z,30.70
2023-04-02T09:36:26.010Z,29.58
2023-04-02T09:39:07.018Z,29.71
2023-04-02T09:41:36.989Z,29.76
2023-04-02T09:44:28.384Z,29.54
2023-04-02T09:47:06.095Z,29.85
2023-04-02T09:49:36.777Z,29.31
2023-04-02T09:52:27.454Z,29.12
2023-04-02T09:55:16.726Z,30.17
2023-04-02T09:57:46.629Z,28.44
2023-04-02T10:00:25.995Z,28.16
2023-04-02T10:03:03.676Z,28.45
2023-04-02T10:05:40.587Z,28.14
2023-04-02T10:08:19.078Z,27.47
2023-04-02T10:10:53.043Z,28.50
2023-04-02T10:13:46.301Z,27.09
2023-04-02T10:16:20.630Z,29.45
2023-04-02T10:18:52.107Z,29.45
2023-04-02T10:21:36.207Z,28.62
2023-04-02T10:24:12.691Z,30.03
2023-04-02T10:26:55.407Z,28.13
2023-04-02T10:29:31.887Z,28.03
2023-04-02T10:32:12.441Z,30.62
2023-04-02T10:34:46.112Z,29.27
2023-04-02T10:37:54.464Z,30.44
2023-04-02T10:40:42.248Z,35.80
2023-04-02T10:43:33.278Z,33.41
2023-04-02T10:46:09.042Z,33.84
2023-04-02T10:49:23.639Z,38.25
2023-04-02T10:52:07.673Z,37.39
2023-04-02T10:54:57.950Z,37.79
2023-04-02T10:57:40.716Z,37.24
2023-04-02T11:00:11.962Z,36.29
2023-04-02T11:02:54.898Z,33.58
2023-04-02T11:05:40.267Z,33.26
2023-04-02T11:08:18.721Z,35.33
2023-04-02T11:11:09.502Z,37.35
2023-04-02T11:14:00.520Z,35.76
2023-04-02T11:16:28.664Z,37.30
2023-04-02T11:19:14.630Z,40.39
2023-04-02T11:22:02.697Z,40.90
2023-04-02T11:24:42.568Z,41.63
2023-04-02T11:27:10.026Z,39.87
2023-04-02T11:30:01.343Z,36.60
2023-04-02T11:32:42.749Z,40.54
2023-04-02T11:35:32.212Z,35.76
2023-04-02T11:38:23.757Z,34.26
2023-04-02T11:40:55.214Z,39.57
2023-04-02T11:43:35.852Z,40.14
2023-04-02T11:46:16.060Z,36.55
2023-04-02T11:48:46.753Z,38.72
2023-04-02T11:51:21.746Z,38.79
2023-04-02T11:53:51.766Z,36.80
2023-04-02T11:56:48.208Z,39.28
2023-04-02T11:59:39.218Z,39.14
2023-04-02T12:02:19.939Z,34.09
2023-04-02T12:04:56.616Z,34.74
2023-04-02T12:07:55.884Z,32.63
2023-04-02T12:10:32.142Z,36.50
2023-04-02T12:13:00.988Z,36.77
2023-04-02T12:15:45.326Z,36.39
2023-04-02T12:18:14.926Z,40.20
2023-04-02T12:20:51.657Z,38.07
2023-04-02T12:23:31.821Z,40.46
2023-04-02T12:26:10.595Z,41.39
2023-04-02T12:28:38.320Z,38.00
2023-04-02T12:31:17.486Z,35.34
2023-04-02T12:33:45.841Z,35.54
2023-04-02T12:36:14.650Z,34.91
2023-04-02T12:38:54.541Z,32.91
2023-04-02T12:41:24.085Z,32.25
2023-04-02T12:43:59.071Z,37.19
2023-04-02T12:46:27.633Z,40.90
2023-04-02T12:49:04.251Z,38.44
2023-04-02T12:51:32.314Z,39.84
2023-04-02T12:54:00.025Z,40.07
2023-04-02T12:56:27.697Z,40.66
2023-04-02T12:58:58.569Z,37.86
2023-04-02T13:01:31.904Z,41.12
2023-04-02T13:04:03.434Z,39.91
2023-04-02T13:06:32.025Z,41.18
2023-04-02T13:09:07.016Z,41.62
2023-04-02T13:11:43.525Z,39.15
2023-04-02T13:14:20.353Z,37.73
2023-04-02T13:16:55.841Z,40.25
2023-04-02T13:19:30.274Z,41.48
2023-04-02T13:22:03.428Z,36.37
2023-04-02T13:24:34.677Z,37.83
2023-04-02T13:27:03.360Z,41.49
2023-04-02T13:29:35.968Z,36.88
2023-04-02T13:32:06.882Z,33.66
2023-04-02T13:34:37.757Z,32.86
2023-04-02T13:37:05.777Z,30.97
2023-04-02T13:39:33.652Z,36.52
2023-04-02T13:42:03.769Z,35.27
2023-04-02T13:44:33.838Z,38.60
2023-04-02T13:47:01.811Z,39.16
2023-04-02T13:49:29.770Z,37.86
2023-04-02T13:52:03.101Z,34.12
2023-04-02T13:54:48.828Z,32.37
2023-04-02T13:57:16.924Z,31.19
2023-04-02T13:59:44.577Z,32.17
2023-04-02T14:02:25.794Z,33.01
2023-04-02T14:05:29.557Z,33.12
2023-04-02T14:08:15.566Z,33.18
2023-04-02T14:11:17.479Z,39.60
